Time;durP1;ratioP1;P1;durP2;ratioP2;P2;SDS_P1;SDS_P2;PMS_P1;PMS_P2;Temp;Humidity;BMP_temperature;BMP_pressure;BME280_temperature;BME280_humidity;BME280_pressure;Samples;Min_cycle;Max_cycle;Signal;HPM_P1;HPM_P2
2021/12/14 00:02:25;;;;;;;24.58;15.95;;;8.20;99.90;;;;;;5063678;28;20045;-79
2021/12/14 00:04:52;;;;;;;21.85;15.23;;;8.10;99.90;;;;;;5064364;28;20098;-79
2021/12/14 00:07:18;;;;;;;20.52;14.27;;;8.10;99.90;;;;;;5061749;28;20060;-79
2021/12/14 00:09:45;;;;;;;26.80;15.88;;;8.20;99.90;;;;;;5060653;28;20051;-79
2021/12/14 00:12:24;;;;;;;23.88;15.80;;;8.20;99.90;;;;;;5059563;28;20454;-80
2021/12/14 00:15:04;;;;;;;21.80;16.02;;;8.20;99.90;;;;;;5064352;28;20476;-79
2021/12/14 00:17:30;;;;;;;20.10;15.13;;;8.20;99.90;;;;;;5067806;28;20049;-79
2021/12/14 00:19:57;;;;;;;19.42;15.25;;;8.10;99.90;;;;;;5055391;28;20049;-80
2021/12/14 00:22:32;;;;;;;22.30;14.05;;;8.20;99.90;;;;;;5071391;28;20385;-79
2021/12/14 00:24:57;;;;;;;24.80;14.18;;;8.20;99.90;;;;;;5062512;28;20055;-79
2021/12/14 00:27:24;;;;;;;17.15;12.85;;;8.20;99.90;;;;;;5056701;28;20044;-79
2021/12/14 00:29:50;;;;;;;20.15;15.00;;;8.10;99.90;;;;;;5060617;28;20044;-80
2021/12/14 00:32:19;;;;;;;20.25;13.98;;;8.20;99.90;;;;;;5059173;28;20052;-80
2021/12/14 00:34:46;;;;;;;17.02;13.38;;;8.20;99.90;;;;;;5060393;28;20067;-80
2021/12/14 00:37:13;;;;;;;18.23;14.48;;;8.10;99.90;;;;;;5060947;28;20080;-79
2021/12/14 00:39:39;;;;;;;20.13;13.23;;;8.20;99.90;;;;;;5061209;28;20056;-80
2021/12/14 00:42:06;;;;;;;17.13;13.05;;;8.10;99.90;;;;;;5058034;28;20041;-80
2021/12/14 00:44:33;;;;;;;20.40;13.07;;;8.10;99.90;;;;;;5063586;28;20056;-79
2021/12/14 00:46:59;;;;;;;23.55;15.57;;;8.10;99.90;;;;;;5052239;28;20414;-80
2021/12/14 00:49:26;;;;;;;18.77;13.55;;;8.10;99.90;;;;;;5057903;28;20141;-80
2021/12/14 00:51:54;;;;;;;17.67;13.98;;;8.10;99.90;;;;;;5066240;28;20048;-79
2021/12/14 00:54:20;;;;;;;20.08;13.20;;;8.10;99.90;;;;;;5057858;28;20049;-80
2021/12/14 00:56:47;;;;;;;19.77;13.63;;;8.20;99.90;;;;;;5064623;28;20060;-80
2021/12/14 00:59:13;;;;;;;16.75;12.48;;;8.20;99.90;;;;;;5068351;28;20055;-79
2021/12/14 01:01:41;;;;;;;18.80;12.95;;;8.20;99.90;;;;;;5065751;28;20064;-79
2021/12/14 01:04:08;;;;;;;19.38;13.25;;;8.10;99.90;;;;;;5061809;28;20109;-79
2021/12/14 01:06:34;;;;;;;20.48;13.52;;;8.20;99.90;;;;;;5061475;28;20044;-79
2021/12/14 01:09:02;;;;;;;18.23;12.95;;;8.10;99.90;;;;;;5062712;28;20045;-80
2021/12/14 01:11:31;;;;;;;20.33;13.05;;;8.20;99.90;;;;;;5060353;28;20048;-79
2021/12/14 01:14:02;;;;;;;18.55;12.52;;;8.20;99.90;;;;;;5059880;28;20064;-80
2021/12/14 01:16:34;;;;;;;;;;;8.20;99.90;;;;;;5068199;28;20072;-80
2021/12/14 01:19:12;;;;;;;19.27;12.20;;;8.20;99.90;;;;;;5065870;28;19928;-80
2021/12/14 01:21:57;;;;;;;15.77;11.70;;;8.20;99.90;;;;;;5063998;28;20052;-80
2021/12/14 01:24:36;;;;;;;17.63;12.10;;;8.20;99.90;;;;;;5059552;28;20074;-80
2021/12/14 01:27:03;;;;;;;17.23;12.65;;;8.20;99.90;;;;;;5052124;28;20081;-80
2021/12/14 01:29:30;;;;;;;15.60;10.90;;;8.20;99.90;;;;;;5059251;28;20064;-79
2021/12/14 01:32:00;;;;;;;17.27;11.70;;;8.20;99.90;;;;;;5058319;28;20464;-80
2021/12/14 01:34:26;;;;;;;14.60;11.95;;;8.20;99.90;;;;;;5053690;28;20052;-80
2021/12/14 01:36:56;;;;;;;16.45;11.98;;;8.20;99.90;;;;;;5067854;28;20048;-80
2021/12/14 01:39:44;;;;;;;15.10;10.88;;;8.20;99.90;;;;;;5057816;28;20045;-80
2021/12/14 01:42:10;;;;;;;21.27;12.50;;;8.20;99.90;;;;;;5057690;28;20083;-80
2021/12/14 01:44:36;;;;;;;19.42;11.18;;;8.20;99.90;;;;;;5056728;28;20048;-80
2021/12/14 01:47:03;;;;;;;15.60;11.63;;;8.20;99.90;;;;;;5060385;28;20055;-80
2021/12/14 01:49:29;;;;;;;14.57;10.88;;;8.20;99.90;;;;;;5054192;28;20396;-80
2021/12/14 01:51:56;;;;;;;19.35;12.85;;;8.20;99.90;;;;;;5067747;28;20045;-80
2021/12/14 01:54:22;;;;;;;18.27;13.10;;;8.10;99.90;;;;;;5060000;28;20717;-80
2021/12/14 01:56:49;;;;;;;18.27;13.27;;;8.10;99.90;;;;;;5068554;28;20491;-79
2021/12/14 01:59:15;;;;;;;18.70;13.27;;;8.10;99.90;;;;;;5065062;28;20679;-79
2021/12/14 02:01:53;;;;;;;14.82;11.73;;;8.10;99.90;;;;;;5064698;28;20048;-80
2021/12/14 02:04:20;;;;;;;18.30;13.55;;;8.10;99.90;;;;;;5057553;28;20512;-80
2021/12/14 02:06:46;;;;;;;17.55;13.23;;;8.20;99.90;;;;;;5060102;28;20079;-79
2021/12/14 02:09:13;;;;;;;20.13;13.45;;;8.10;99.90;;;;;;5054884;28;20045;-80
2021/12/14 02:11:39;;;;;;;27.33;15.13;;;8.20;99.90;;;;;;5059155;28;20060;-81
2021/12/14 02:14:06;;;;;;;21.42;14.20;;;8.10;99.90;;;;;;5062223;28;20052;-80
2021/12/14 02:16:32;;;;;;;18.08;13.55;;;8.20;99.90;;;;;;5055784;28;20052;-80
2021/12/14 02:18:59;;;;;;;23.88;14.80;;;8.20;99.90;;;;;;5053778;28;20049;-80
2021/12/14 02:21:25;;;;;;;17.38;13.48;;;8.20;99.90;;;;;;5058131;28;20048;-80
2021/12/14 02:23:52;;;;;;;21.65;15.18;;;8.20;99.90;;;;;;5060801;28;20477;-80
2021/12/14 02:26:18;;;;;;;19.55;13.65;;;8.20;99.90;;;;;;5062443;28;20621;-79
2021/12/14 02:28:45;;;;;;;19.38;14.57;;;8.10;99.90;;;;;;5058019;28;20396;-80
2021/12/14 02:31:12;;;;;;;22.60;15.55;;;8.10;99.90;;;;;;5063165;28;20045;-80
2021/12/14 02:33:38;;;;;;;23.40;14.52;;;8.20;99.90;;;;;;5065526;28;20075;-80
2021/12/14 02:36:05;;;;;;;19.38;14.13;;;8.20;99.90;;;;;;5054898;28;20068;-80
2021/12/14 02:38:31;;;;;;;23.10;15.77;;;8.20;99.90;;;;;;5054693;28;20041;-80
2021/12/14 02:40:58;;;;;;;23.52;15.05;;;8.20;99.90;;;;;;5053724;28;20489;-80
2021/12/14 02:43:24;;;;;;;22.58;15.98;;;8.20;99.90;;;;;;5061399;28;20055;-80
2021/12/14 02:45:51;;;;;;;20.83;15.05;;;8.20;99.90;;;;;;5063669;28;20055;-80
2021/12/14 02:48:17;;;;;;;18.45;14.60;;;8.20;99.90;;;;;;5067456;28;20036;-80
2021/12/14 02:50:44;;;;;;;21.90;16.73;;;8.10;99.90;;;;;;5067450;28;20048;-80
2021/12/14 02:53:11;;;;;;;22.63;15.18;;;8.10;99.90;;;;;;5055374;28;20446;-80
2021/12/14 02:55:37;;;;;;;24.17;17.20;;;8.10;99.90;;;;;;5069155;28;20411;-80
2021/12/14 02:58:05;;;;;;;22.20;16.25;;;8.10;99.90;;;;;;5056032;28;20609;-80
2021/12/14 03:00:32;;;;;;;23.50;16.85;;;8.10;99.90;;;;;;5055573;28;20049;-80
2021/12/14 03:02:58;;;;;;;24.27;16.33;;;8.00;99.90;;;;;;5070230;28;20057;-80
2021/12/14 03:05:25;;;;;;;33.35;18.30;;;8.00;99.90;;;;;;5063082;28;20589;-79
2021/12/14 03:07:51;;;;;;;28.02;19.05;;;8.00;99.90;;;;;;5059747;28;20491;-81
2021/12/14 03:10:31;;;;;;;24.40;18.25;;;8.00;99.90;;;;;;5059938;28;20037;-80
2021/12/14 03:12:58;;;;;;;25.60;18.87;;;7.90;99.90;;;;;;5060330;28;20059;-80
2021/12/14 03:15:24;;;;;;;29.90;17.15;;;7.90;99.90;;;;;;5057668;28;20053;-80
2021/12/14 03:17:51;;;;;;;28.55;19.00;;;7.90;99.90;;;;;;5064886;28;20051;-80
2021/12/14 03:20:17;;;;;;;29.45;18.67;;;7.90;99.90;;;;;;5058490;28;20055;-80
2021/12/14 03:22:44;;;;;;;28.95;19.27;;;7.90;99.90;;;;;;5068138;28;20091;-80
2021/12/14 03:25:13;;;;;;;27.60;18.73;;;7.90;99.90;;;;;;5063987;28;20047;-80
2021/12/14 03:27:39;;;;;;;25.50;18.10;;;7.90;99.90;;;;;;5063318;28;20127;-80
2021/12/14 03:30:06;;;;;;;30.83;18.75;;;7.90;99.90;;;;;;5062893;28;20045;-80
2021/12/14 03:32:32;;;;;;;25.02;18.17;;;7.90;99.90;;;;;;5062297;28;20051;-80
2021/12/14 03:34:59;;;;;;;29.50;20.55;;;7.90;99.90;;;;;;5063389;28;20067;-80
2021/12/14 03:37:25;;;;;;;27.33;19.00;;;7.90;99.90;;;;;;5062127;28;20045;-80
2021/12/14 03:39:52;;;;;;;31.40;19.80;;;7.90;99.90;;;;;;5066223;28;20075;-80
2021/12/14 03:42:19;;;;;;;29.92;19.33;;;7.90;99.90;;;;;;5057891;28;20392;-80
2021/12/14 03:44:45;;;;;;;30.70;19.33;;;7.90;99.90;;;;;;5068223;28;20098;-80
2021/12/14 03:47:12;;;;;;;31.63;19.17;;;7.90;99.90;;;;;;5067822;28;20041;-80
2021/12/14 03:49:38;;;;;;;25.15;18.15;;;7.90;99.90;;;;;;5066998;28;20063;-80
2021/12/14 03:52:05;;;;;;;30.77;21.45;;;7.90;99.90;;;;;;5063941;28;20049;-80
2021/12/14 03:54:32;;;;;;;33.22;20.92;;;7.90;99.90;;;;;;5067341;28;20051;-80
2021/12/14 03:56:58;;;;;;;26.95;18.27;;;7.90;99.90;;;;;;5058578;28;20053;-80
2021/12/14 03:59:25;;;;;;;28.60;19.15;;;7.90;99.90;;;;;;5067702;28;20052;-80
2021/12/14 04:01:52;;;;;;;28.20;19.60;;;7.90;99.90;;;;;;5070270;28;20052;-80
2021/12/14 04:04:19;;;;;;;32.90;20.98;;;7.90;99.90;;;;;;5058458;28;20083;-80
2021/12/14 04:06:45;;;;;;;30.33;21.17;;;7.90;99.90;;;;;;5072987;28;20052;-80
2021/12/14 04:09:12;;;;;;;30.15;19.95;;;7.90;99.90;;;;;;5068011;28;20128;-79
2021/12/14 04:11:39;;;;;;;27.98;20.38;;;7.90;99.90;;;;;;5055898;28;20072;-79
2021/12/14 04:14:07;;;;;;;33.60;21.48;;;7.90;99.90;;;;;;5052991;28;20055;-80
2021/12/14 04:16:33;;;;;;;28.05;20.52;;;7.90;99.90;;;;;;5051896;28;20056;-80
2021/12/14 04:19:04;;;;;;;29.15;21.50;;;7.90;99.90;;;;;;5059533;28;20496;-79
2021/12/14 04:21:30;;;;;;;27.40;19.80;;;7.90;99.90;;;;;;5059173;28;20052;-80
2021/12/14 04:23:57;;;;;;;32.75;22.42;;;7.90;99.90;;;;;;5055461;28;20053;-80
2021/12/14 04:26:23;;;;;;;35.35;21.35;;;7.90;99.90;;;;;;5066751;28;21207;-80
2021/12/14 04:28:50;;;;;;;32.55;20.92;;;7.90;99.90;;;;;;5054701;28;20420;-79
2021/12/14 04:31:17;;;;;;;33.20;21.80;;;7.90;99.90;;;;;;5060947;28;20468;-80
2021/12/14 04:33:43;;;;;;;33.92;21.33;;;7.90;99.90;;;;;;5061703;28;20064;-80
2021/12/14 04:36:10;;;;;;;35.45;21.13;;;7.90;99.90;;;;;;5061687;28;20060;-80
2021/12/14 04:38:45;;;;;;;33.13;22.83;;;7.90;99.90;;;;;;5065681;28;20463;-80
2021/12/14 04:52:21;;;;;;;29.10;20.98;;;7.80;99.90;;;;;;5014622;28;20144;-80
2021/12/14 04:54:47;;;;;;;38.65;22.65;;;7.80;99.90;;;;;;5056053;28;20060;-80
2021/12/14 04:57:14;;;;;;;38.25;23.58;;;7.80;99.90;;;;;;5068781;28;20373;-80
2021/12/14 04:59:40;;;;;;;34.75;22.02;;;7.80;99.90;;;;;;5062753;28;20052;-80
2021/12/14 05:02:08;;;;;;;34.47;22.75;;;7.80;99.90;;;;;;5052879;28;20053;-80
2021/12/14 05:04:34;;;;;;;39.38;22.85;;;7.80;99.90;;;;;;5053868;28;20049;-80
2021/12/14 05:07:25;;;;;;;37.97;23.58;;;7.80;99.90;;;;;;5053464;28;20053;-80
2021/12/14 05:09:49;;;;;;;35.92;22.80;;;7.80;99.90;;;;;;5053882;28;20056;-80
2021/12/14 05:12:15;;;;;;;37.92;23.45;;;7.90;99.90;;;;;;5059381;28;20044;-80
2021/12/14 05:14:42;;;;;;;43.45;25.65;;;7.80;99.90;;;;;;5054544;28;20064;-80
2021/12/14 05:17:08;;;;;;;42.58;27.23;;;7.90;99.90;;;;;;5053179;28;20053;-80
2021/12/14 05:19:35;;;;;;;42.42;25.90;;;7.80;99.90;;;;;;5060949;28;20059;-80
2021/12/14 05:22:01;;;;;;;37.50;25.60;;;7.80;99.90;;;;;;5052447;28;20495;-80
2021/12/14 05:24:29;;;;;;;40.45;26.83;;;7.80;99.90;;;;;;5055408;28;20048;-81
2021/12/14 05:26:56;;;;;;;40.03;24.35;;;7.80;99.90;;;;;;5057301;28;20053;-80
2021/12/14 05:29:22;;;;;;;36.85;23.63;;;7.80;99.90;;;;;;5066321;28;20056;-80
2021/12/14 05:31:49;;;;;;;36.22;25.88;;;7.80;99.90;;;;;;5056025;28;20049;-80
2021/12/14 05:34:15;;;;;;;38.25;25.15;;;7.80;99.90;;;;;;5068929;28;20055;-80
2021/12/14 05:36:42;;;;;;;42.22;27.65;;;7.80;99.90;;;;;;5060848;28;20057;-78
2021/12/14 05:39:24;;;;;;;44.40;27.80;;;7.80;99.90;;;;;;5059208;28;20049;-79
2021/12/14 05:44:35;;;;;;;47.00;26.10;;;7.80;99.90;;;;;;5057681;28;20831;-79
2021/12/14 05:47:01;;;;;;;38.30;25.85;;;7.80;99.90;;;;;;5064476;28;20506;-80
2021/12/14 05:49:28;;;;;;;44.10;27.25;;;7.80;99.90;;;;;;5061201;28;20464;-80
2021/12/14 05:51:54;;;;;;;44.88;28.00;;;7.70;99.90;;;;;;5057141;28;20080;-80
2021/12/14 05:54:21;;;;;;;44.22;27.90;;;7.70;99.90;;;;;;5055736;28;20052;-79
2021/12/14 05:56:48;;;;;;;43.80;25.88;;;7.70;99.90;;;;;;5062329;28;20060;-80
2021/12/14 05:59:14;;;;;;;40.67;25.02;;;7.70;99.90;;;;;;5056456;28;20153;-79
2021/12/14 06:01:41;;;;;;;47.13;27.15;;;7.70;99.90;;;;;;5061792;28;20056;-80
2021/12/14 06:04:07;;;;;;;43.97;26.98;;;7.70;99.90;;;;;;5055456;28;20053;-79
2021/12/14 06:06:34;;;;;;;38.05;27.48;;;7.70;99.90;;;;;;5059695;28;20041;-79
2021/12/14 06:09:00;;;;;;;47.90;27.10;;;7.70;99.90;;;;;;5065271;28;20055;-78
2021/12/14 06:11:28;;;;;;;38.28;26.77;;;7.80;99.90;;;;;;5051264;28;20057;-79
2021/12/14 06:13:55;;;;;;;48.97;28.98;;;7.70;99.90;;;;;;5055033;28;20071;-80
2021/12/14 06:16:21;;;;;;;42.70;27.48;;;7.70;99.90;;;;;;5050741;28;20040;-79
2021/12/14 06:18:48;;;;;;;48.17;29.60;;;7.80;99.90;;;;;;5054231;28;20045;-79
2021/12/14 06:21:14;;;;;;;43.58;27.38;;;7.80;99.90;;;;;;5052406;28;20074;-79
2021/12/14 06:23:41;;;;;;;43.40;27.58;;;7.80;99.90;;;;;;5050085;28;20063;-79
2021/12/14 06:26:07;;;;;;;39.60;27.20;;;7.80;99.90;;;;;;5053066;28;20061;-79
2021/12/14 06:28:34;;;;;;;48.90;27.95;;;7.80;99.90;;;;;;5052378;28;20049;-79
2021/12/14 06:31:00;;;;;;;50.83;27.15;;;7.80;99.90;;;;;;5051248;28;20045;-80
2021/12/14 06:33:27;;;;;;;43.92;26.42;;;7.80;99.90;;;;;;5056114;28;20053;-79
2021/12/14 06:35:56;;;;;;;47.50;29.67;;;7.80;99.90;;;;;;5056566;28;20056;-79
2021/12/14 06:38:28;;;;;;;42.30;26.88;;;7.80;99.90;;;;;;5055216;28;20053;-79
2021/12/14 06:40:54;;;;;;;44.08;28.23;;;7.80;99.90;;;;;;5056447;28;20045;-79
2021/12/14 06:43:21;;;;;;;41.85;26.98;;;7.70;99.90;;;;;;5057044;28;20052;-79
2021/12/14 06:45:47;;;;;;;40.92;28.42;;;7.70;99.90;;;;;;5055253;28;20057;-78
2021/12/14 06:48:16;;;;;;;48.28;28.77;;;7.70;99.90;;;;;;5058106;28;20056;-79
2021/12/14 06:50:42;;;;;;;42.63;27.48;;;7.70;99.90;;;;;;5059227;28;20080;-79
2021/12/14 06:53:09;;;;;;;43.28;29.15;;;7.70;99.90;;;;;;5053847;28;20049;-79
2021/12/14 06:55:35;;;;;;;42.42;29.05;;;7.70;99.90;;;;;;5059452;28;20060;-79
2021/12/14 06:58:02;;;;;;;42.40;27.65;;;7.70;99.90;;;;;;5058913;28;20064;-79
2021/12/14 07:00:28;;;;;;;48.35;29.17;;;7.70;99.90;;;;;;5060376;28;20059;-79
2021/12/14 07:02:56;;;;;;;51.92;30.25;;;7.70;99.90;;;;;;5069440;28;20044;-79
2021/12/14 07:05:23;;;;;;;52.20;30.10;;;7.70;99.90;;;;;;5059604;28;20056;-79
2021/12/14 07:07:49;;;;;;;52.17;30.40;;;7.70;99.90;;;;;;5065917;28;20055;-78
2021/12/14 07:10:16;;;;;;;51.30;30.27;;;7.70;99.90;;;;;;5060325;28;20045;-79
2021/12/14 07:12:42;;;;;;;43.60;27.15;;;7.70;99.90;;;;;;5053683;28;20132;-79
2021/12/14 07:15:09;;;;;;;46.47;28.13;;;7.70;99.90;;;;;;5054516;28;20487;-79
2021/12/14 07:17:41;;;;;;;51.65;30.92;;;7.70;99.90;;;;;;5062546;28;20496;-79
2021/12/14 07:20:08;;;;;;;42.10;29.13;;;7.70;99.90;;;;;;5063928;28;20056;-78
2021/12/14 07:22:34;;;;;;;54.03;29.63;;;7.70;99.90;;;;;;5061829;28;20048;-79
2021/12/14 07:25:01;;;;;;;52.92;30.73;;;7.70;99.90;;;;;;5063829;28;20053;-79
2021/12/14 07:27:28;;;;;;;45.53;28.60;;;7.70;99.90;;;;;;5062990;28;20044;-79
2021/12/14 07:29:54;;;;;;;43.67;28.83;;;7.70;99.90;;;;;;5067598;28;20052;-80
2021/12/14 07:32:21;;;;;;;48.75;30.00;;;7.80;99.90;;;;;;5063291;28;20084;-80
2021/12/14 07:34:47;;;;;;;49.30;29.50;;;7.80;99.90;;;;;;5055259;28;20071;-80
2021/12/14 07:37:14;;;;;;;52.28;30.92;;;7.80;99.90;;;;;;5058178;28;20051;-80
2021/12/14 07:39:40;;;;;;;49.78;31.25;;;7.80;99.90;;;;;;5055134;28;20136;-80
2021/12/14 07:42:07;;;;;;;45.42;30.42;;;7.80;99.90;;;;;;5055392;28;20056;-80
2021/12/14 07:44:33;;;;;;;46.20;30.60;;;7.80;99.90;;;;;;5058611;28;20044;-80
2021/12/14 07:47:00;;;;;;;48.42;29.83;;;7.80;99.90;;;;;;5056019;28;20049;-80
2021/12/14 07:49:27;;;;;;;50.90;29.25;;;7.80;99.90;;;;;;5052502;28;20045;-79
2021/12/14 07:51:53;;;;;;;42.92;27.17;;;7.80;99.90;;;;;;5054514;28;20049;-80
2021/12/14 07:54:20;;;;;;;49.47;30.35;;;7.80;99.90;;;;;;5060654;28;20051;-80
2021/12/14 07:56:46;;;;;;;50.80;30.38;;;7.90;99.90;;;;;;5060114;28;20059;-80
2021/12/14 07:59:13;;;;;;;48.83;28.35;;;7.90;99.90;;;;;;5059648;28;20040;-79
2021/12/14 08:01:39;;;;;;;41.30;28.50;;;8.00;99.90;;;;;;5058649;28;20049;-81
2021/12/14 08:04:06;;;;;;;41.55;27.25;;;7.90;99.90;;;;;;5067577;28;20373;-79
2021/12/14 08:06:32;;;;;;;55.50;30.73;;;8.00;99.90;;;;;;5055643;28;20049;-80
2021/12/14 08:08:59;;;;;;;54.88;32.97;;;8.00;99.90;;;;;;5052209;28;20464;-80
2021/12/14 08:11:47;;;;;;;47.40;31.45;;;7.90;99.90;;;;;;5072875;28;20056;-80
2021/12/14 08:14:13;;;;;;;49.25;32.28;;;8.00;99.90;;;;;;5057131;28;20045;-81
2021/12/14 08:16:40;;;;;;;48.85;30.27;;;8.00;99.90;;;;;;5056769;28;20060;-80
2021/12/14 08:19:06;;;;;;;53.60;32.25;;;8.00;99.90;;;;;;5053775;28;20044;-80
2021/12/14 08:21:33;;;;;;;48.58;31.25;;;8.00;99.90;;;;;;5058552;28;20041;-80
2021/12/14 08:23:59;;;;;;;53.65;31.55;;;8.00;99.90;;;;;;5063185;28;20472;-80
2021/12/14 08:26:26;;;;;;;47.63;31.50;;;8.10;99.90;;;;;;5061669;28;20045;-80
2021/12/14 08:28:53;;;;;;;51.22;31.70;;;8.10;99.90;;;;;;5062862;28;20045;-80
2021/12/14 08:31:19;;;;;;;59.50;32.80;;;8.10;99.90;;;;;;5059735;28;20405;-80
2021/12/14 08:33:46;;;;;;;56.30;32.75;;;8.10;99.90;;;;;;5067083;28;20400;-80
2021/12/14 08:36:12;;;;;;;54.63;34.35;;;8.00;99.90;;;;;;5030304;28;1106285;-80
2021/12/14 08:38:39;;;;;;;55.97;33.25;;;8.10;99.90;;;;;;5060744;28;20091;-80
2021/12/14 08:41:12;;;;;;;55.55;34.95;;;8.10;99.90;;;;;;5054344;28;20057;-79
2021/12/14 08:43:46;;;;;;;59.95;33.55;;;8.00;99.90;;;;;;5054948;28;20059;-80
2021/12/14 08:46:13;;;;;;;66.32;38.55;;;8.00;99.90;;;;;;5053465;28;20045;-80
2021/12/14 08:48:39;;;;;;;53.70;33.45;;;8.10;99.90;;;;;;5055791;28;20041;-80
2021/12/14 08:51:12;;;;;;;55.90;33.05;;;8.00;99.90;;;;;;5058644;28;20056;-80
2021/12/14 08:53:39;;;;;;;63.65;34.85;;;8.10;99.90;;;;;;5053796;28;20477;-81
2021/12/14 08:56:05;;;;;;;57.40;34.22;;;8.10;99.90;;;;;;5056283;28;20044;-80
2021/12/14 08:58:32;;;;;;;57.08;35.80;;;8.10;99.90;;;;;;5073096;28;20049;-80
2021/12/14 09:00:58;;;;;;;59.35;34.63;;;8.10;99.90;;;;;;5057878;28;20060;-81
2021/12/14 09:03:31;;;;;;;55.35;33.50;;;8.10;99.90;;;;;;5053996;28;20480;-80
2021/12/14 09:05:58;;;;;;;67.40;35.75;;;8.10;99.90;;;;;;5052966;28;20479;-80
2021/12/14 09:08:24;;;;;;;60.13;35.78;;;8.10;99.90;;;;;;5055610;28;20053;-80
2021/12/14 09:10:51;;;;;;;62.65;33.70;;;8.10;99.90;;;;;;5056904;28;20044;-80
2021/12/14 09:13:18;;;;;;;66.32;37.40;;;8.10;99.90;;;;;;5055084;28;20041;-81
2021/12/14 09:15:44;;;;;;;60.13;34.95;;;8.10;99.90;;;;;;5047451;28;20060;-81
2021/12/14 09:18:11;;;;;;;66.13;36.58;;;8.20;99.90;;;;;;5057157;28;20048;-81
2021/12/14 09:20:37;;;;;;;66.57;37.65;;;8.10;99.90;;;;;;5051620;28;20053;-81
2021/12/14 09:23:04;;;;;;;56.42;35.03;;;8.10;99.90;;;;;;5058829;28;20052;-81
2021/12/14 09:25:30;;;;;;;51.10;34.05;;;8.10;99.90;;;;;;5058593;28;20049;-81
2021/12/14 09:27:57;;;;;;;57.28;34.88;;;8.10;99.90;;;;;;5058167;28;20055;-81
2021/12/14 09:30:23;;;;;;;61.17;34.97;;;8.20;99.90;;;;;;5058342;28;20044;-81
2021/12/14 09:32:50;;;;;;;56.17;35.50;;;8.20;99.90;;;;;;5051393;28;20052;-81
2021/12/14 09:35:17;;;;;;;66.10;37.75;;;8.20;99.90;;;;;;5057950;28;20059;-82
2021/12/14 09:37:43;;;;;;;61.78;35.92;;;8.20;99.90;;;;;;5060180;28;20099;-82
2021/12/14 09:40:10;;;;;;;61.80;34.97;;;8.20;99.90;;;;;;5059567;28;20059;-81
2021/12/14 09:42:36;;;;;;;60.28;36.22;;;8.20;99.90;;;;;;5056552;28;20053;-81
2021/12/14 09:45:03;;;;;;;61.03;35.25;;;8.20;99.90;;;;;;5056576;28;20056;-80
2021/12/14 09:47:31;;;;;;;62.35;37.80;;;8.20;99.90;;;;;;5057449;28;20048;-82
2021/12/14 09:49:57;;;;;;;58.75;34.10;;;8.20;99.90;;;;;;5051024;28;20484;-81
2021/12/14 09:52:24;;;;;;;54.95;34.42;;;8.20;99.90;;;;;;5049499;28;20075;-82
2021/12/14 09:54:50;;;;;;;59.45;36.95;;;8.30;99.90;;;;;;5052254;28;20053;-80
2021/12/14 09:57:17;;;;;;;60.78;37.50;;;8.30;99.90;;;;;;5050468;28;20053;-82
2021/12/14 09:59:43;;;;;;;63.72;36.72;;;8.30;99.90;;;;;;5056186;28;20072;-81
2021/12/14 10:02:10;;;;;;;70.05;36.78;;;8.30;99.90;;;;;;5057882;28;20056;-81
2021/12/14 10:04:37;;;;;;;65.03;38.38;;;8.40;99.90;;;;;;5059869;28;20499;-80
2021/12/14 10:07:04;;;;;;;70.40;37.35;;;8.40;99.90;;;;;;5049013;28;20056;-82
2021/12/14 10:09:31;;;;;;;69.63;38.35;;;8.40;99.90;;;;;;5057022;28;20055;-81
2021/12/14 10:12:14;;;;;;;69.90;36.17;;;8.40;99.90;;;;;;5060654;28;20047;-81
2021/12/14 10:14:41;;;;;;;68.78;38.95;;;8.40;99.90;;;;;;5057284;28;20396;-81
2021/12/14 10:17:07;;;;;;;72.03;38.70;;;8.30;99.90;;;;;;5063537;28;20110;-81
2021/12/14 10:19:34;;;;;;;66.38;38.40;;;8.40;99.90;;;;;;5057811;28;20045;-81
2021/12/14 10:22:01;;;;;;;69.45;41.38;;;8.40;99.90;;;;;;5047464;28;20068;-82
2021/12/14 10:24:28;;;;;;;79.55;39.92;;;8.40;99.90;;;;;;5052372;28;20056;-82
2021/12/14 10:26:54;;;;;;;65.43;36.42;;;8.40;99.90;;;;;;5053413;28;20053;-82
2021/12/14 10:29:21;;;;;;;64.68;38.33;;;8.40;99.90;;;;;;5051363;28;20373;-82
2021/12/14 10:31:48;;;;;;;71.53;39.33;;;8.40;99.90;;;;;;5054018;28;20523;-81
2021/12/14 10:34:16;;;;;;;63.13;37.92;;;8.40;99.90;;;;;;5056905;28;20076;-81
2021/12/14 10:36:46;;;;;;;68.05;39.08;;;8.40;99.90;;;;;;5053231;28;20724;-81
2021/12/14 10:39:24;;;;;;;62.20;35.38;;;8.40;99.90;;;;;;5051207;28;20072;-80
2021/12/14 10:44:37;;;;;;;67.78;36.92;;;8.40;99.90;;;;;;5056577;28;20575;-80
2021/12/14 10:47:03;;;;;;;61.38;34.78;;;8.40;99.90;;;;;;5051102;28;20049;-80
2021/12/14 10:49:30;;;;;;;52.80;34.67;;;8.40;99.90;;;;;;5059831;28;20051;-81
2021/12/14 10:51:56;;;;;;;59.03;35.35;;;8.50;99.90;;;;;;5056418;28;20086;-80
2021/12/14 10:54:23;;;;;;;65.43;37.10;;;8.50;99.90;;;;;;5058114;28;20040;-80
2021/12/14 10:56:50;;;;;;;53.50;33.83;;;8.50;99.90;;;;;;5057788;28;20053;-81
2021/12/14 10:59:16;;;;;;;53.15;31.73;;;8.50;99.90;;;;;;5060267;28;20064;-80
2021/12/14 11:01:49;;;;;;;56.75;33.42;;;8.50;99.90;;;;;;5059985;28;20070;-80
2021/12/14 11:04:16;;;;;;;52.45;34.78;;;8.50;99.90;;;;;;5054397;28;20780;-79
2021/12/14 11:06:43;;;;;;;52.10;33.72;;;8.50;99.90;;;;;;5054889;28;20067;-80
2021/12/14 11:11:53;;;;;;;48.83;31.38;;;8.50;99.90;;;;;;5063319;28;20087;-80
2021/12/14 11:14:20;;;;;;;47.83;32.35;;;8.50;99.90;;;;;;5052628;28;20132;-80
2021/12/14 11:19:31;;;;;;;50.05;33.10;;;8.50;99.90;;;;;;5059195;28;20061;-80
2021/12/14 11:21:58;;;;;;;48.28;32.65;;;8.60;99.90;;;;;;5055790;28;20171;-80
2021/12/14 11:24:24;;;;;;;50.90;31.90;;;8.50;99.90;;;;;;5065842;28;20064;-80
2021/12/14 11:26:51;;;;;;;54.65;31.08;;;8.60;99.90;;;;;;5058177;28;20067;-80
2021/12/14 11:29:17;;;;;;;54.42;34.05;;;8.60;99.90;;;;;;5060355;28;20040;-80
2021/12/14 11:31:44;;;;;;;57.38;33.90;;;8.60;99.90;;;;;;5060555;28;20060;-80
2021/12/14 11:34:11;;;;;;;54.00;30.20;;;8.60;99.90;;;;;;5056745;28;20056;-82
2021/12/14 11:36:38;;;;;;;47.78;31.40;;;8.60;99.90;;;;;;5054701;28;20056;-80
2021/12/14 11:39:04;;;;;;;53.33;34.15;;;8.60;99.90;;;;;;5057610;28;20043;-80
2021/12/14 11:41:31;;;;;;;53.53;30.90;;;8.60;99.90;;;;;;5059744;28;20052;-80
2021/12/14 11:43:57;;;;;;;46.33;30.70;;;8.60;99.90;;;;;;5059767;28;20056;-80
2021/12/14 11:46:24;;;;;;;47.00;30.13;;;8.60;99.90;;;;;;5064669;28;20044;-80
2021/12/14 11:48:51;;;;;;;58.20;34.53;;;8.60;99.90;;;;;;5053894;28;20049;-80
2021/12/14 11:51:18;;;;;;;43.65;30.17;;;8.60;99.90;;;;;;5062161;28;20076;-80
2021/12/14 11:53:44;;;;;;;44.03;28.25;;;8.60;99.90;;;;;;5051548;28;20057;-81
2021/12/14 11:56:11;;;;;;;53.35;33.97;;;8.60;99.90;;;;;;5049599;28;20059;-80
2021/12/14 11:58:38;;;;;;;55.75;30.63;;;8.60;99.90;;;;;;5059765;28;20599;-80
2021/12/14 12:01:04;;;;;;;45.33;29.05;;;8.60;99.90;;;;;;5054960;28;20298;-82
2021/12/14 12:03:31;;;;;;;47.53;28.95;;;8.60;99.90;;;;;;5058393;28;20051;-81
2021/12/14 12:06:00;;;;;;;50.10;30.65;;;8.60;99.90;;;;;;5051062;28;20056;-81
2021/12/14 12:11:11;;;;;;;49.50;27.55;;;8.60;99.90;;;;;;5064818;28;20104;-80
2021/12/14 12:13:37;;;;;;;45.83;29.50;;;8.60;99.90;;;;;;5074636;28;20285;-80
2021/12/14 12:16:04;;;;;;;49.80;29.38;;;8.70;99.90;;;;;;5063305;28;20075;-81
2021/12/14 12:18:30;;;;;;;43.67;26.75;;;8.60;99.90;;;;;;5066120;28;20045;-81
2021/12/14 12:20:57;;;;;;;45.33;28.65;;;8.60;99.90;;;;;;5055995;28;20047;-81
2021/12/14 12:23:26;;;;;;;45.05;29.45;;;8.60;99.90;;;;;;5056443;28;20052;-81
2021/12/14 12:25:57;;;;;;;48.67;30.88;;;8.60;99.90;;;;;;5056024;28;20052;-80
2021/12/14 12:28:23;;;;;;;;;;;8.60;99.90;;;;;;5057426;28;20111;-81
2021/12/14 12:30:50;;;;;;;47.95;29.70;;;8.60;99.90;;;;;;5061914;28;19924;-81
2021/12/14 12:33:16;;;;;;;43.10;27.05;;;8.50;99.90;;;;;;5060466;28;20051;-81
2021/12/14 12:35:43;;;;;;;43.22;28.95;;;8.50;99.90;;;;;;5057325;28;20060;-81
2021/12/14 12:38:09;;;;;;;48.35;28.67;;;8.60;99.90;;;;;;5059690;28;20358;-81
2021/12/14 12:40:36;;;;;;;55.63;30.88;;;8.60;99.90;;;;;;5059580;28;20063;-81
2021/12/14 12:43:02;;;;;;;50.45;29.27;;;8.50;99.90;;;;;;5062011;28;20066;-81
2021/12/14 12:45:31;;;;;;;51.72;31.30;;;8.50;99.90;;;;;;5062802;28;20045;-81
2021/12/14 12:47:57;;;;;;;52.80;29.52;;;8.50;99.90;;;;;;5059129;28;20049;-81
2021/12/14 12:50:24;;;;;;;49.67;29.30;;;8.50;99.90;;;;;;5055501;28;20055;-81
2021/12/14 12:52:50;;;;;;;43.92;27.88;;;8.50;99.90;;;;;;5055703;28;20479;-80
2021/12/14 12:55:17;;;;;;;56.00;28.38;;;8.60;99.90;;;;;;5058731;28;20045;-90
2021/12/14 12:57:45;;;;;;;54.95;27.40;;;8.60;99.90;;;;;;5053423;28;20068;-89
2021/12/14 13:00:11;;;;;;;44.17;27.60;;;8.60;99.90;;;;;;5064213;28;20045;-91
2021/12/14 13:02:38;;;;;;;58.40;28.15;;;8.60;99.90;;;;;;5064567;28;20064;-81
2021/12/14 13:05:04;;;;;;;49.83;29.92;;;8.60;99.90;;;;;;5065659;28;20399;-81